sensor_id;sensor_type;location;lat;lon;timestamp;P1;durP1;ratioP1;P2;durP2;ratioP2
15498;SDS011;7851;52.260;6.030;2023-06-22T00:03:31;8.5;;;6.7;;
15498;SDS011;7851;52.260;6.030;2023-06-22T00:03:31;6.5;;;5.9;;
15498;SDS011;7851;52.260;6.030;2023-06-22T00:03:31;6.4;;;5.8;;
15498;SDS011;7851;52.260;6.030;2023-06-22T00:03:31;6.1;;;5.6;;
15498;SDS011;7851;52.260;6.030;2023-06-22T00:04:17;6.4;;;5.9;;
15498;SDS011;7851;52.260;6.030;2023-06-22T00:05:17;7.6;;;6.8;;
15498;SDS011;7851;52.260;6.030;2023-06-22T00:06:17;7.1;;;6.5;;
15498;SDS011;7851;52.260;6.030;2023-06-22T00:07:17;9.3;;;7.4;;
15498;SDS011;7851;52.260;6.030;2023-06-22T00:08:18;8.2;;;7.2;;
15498;SDS011;7851;52.260;6.030;2023-06-22T00:09:17;8;;;7.1;;
15498;SDS011;7851;52.260;6.030;2023-06-22T00:10:17;7.9;;;7;;
15498;SDS011;7851;52.260;6.030;2023-06-22T00:11:17;7;;;6.3;;
15498;SDS011;7851;52.260;6.030;2023-06-22T00:12:17;7.8;;;7;;
15498;SDS011;7851;52.260;6.030;2023-06-22T00:13:17;6.8;;;6.2;;
15498;SDS011;7851;52.260;6.030;2023-06-22T00:14:17;7.1;;;6.5;;
15498;SDS011;7851;52.260;6.030;2023-06-22T00:15:17;7.7;;;6.3;;
15498;SDS011;7851;52.260;6.030;2023-06-22T00:16:17;6.5;;;5.6;;
15498;SDS011;7851;52.260;6.030;2023-06-22T00:17:17;7.3;;;6.5;;
15498;SDS011;7851;52.260;6.030;2023-06-22T00:18:17;7.5;;;6.5;;
15498;SDS011;7851;52.260;6.030;2023-06-22T00:19:17;6.7;;;6.2;;
15498;SDS011;7851;52.260;6.030;2023-06-22T00:20:17;7.3;;;6.6;;
15498;SDS011;7851;52.260;6.030;2023-06-22T00:21:17;8.3;;;6.3;;
15498;SDS011;7851;52.260;6.030;2023-06-22T00:22:17;7.2;;;6.7;;
15498;SDS011;7851;52.260;6.030;2023-06-22T00:23:17;6.2;;;5.7;;
15498;SDS011;7851;52.260;6.030;2023-06-22T00:24:17;6.2;;;5.7;;
15498;SDS011;7851;52.260;6.030;2023-06-22T00:25:17;6.6;;;5.9;;
15498;SDS011;7851;52.260;6.030;2023-06-22T00:26:17;6;;;5.4;;
15498;SDS011;7851;52.260;6.030;2023-06-22T00:27:17;6.7;;;5.7;;
15498;SDS011;7851;52.260;6.030;2023-06-22T00:28:17;6;;;5.5;;
15498;SDS011;7851;52.260;6.030;2023-06-22T00:29:17;6.4;;;5.1;;
15498;SDS011;7851;52.260;6.030;2023-06-22T00:30:18;5.9;;;5.4;;
15498;SDS011;7851;52.260;6.030;2023-06-22T00:31:17;6.3;;;5.7;;
15498;SDS011;7851;52.260;6.030;2023-06-22T00:32:17;5.3;;;4.9;;
15498;SDS011;7851;52.260;6.030;2023-06-22T00:33:17;5.3;;;4.8;;
15498;SDS011;7851;52.260;6.030;2023-06-22T00:34:17;5.5;;;5;;
15498;SDS011;7851;52.260;6.030;2023-06-22T00:35:17;5.9;;;5.4;;
15498;SDS011;7851;52.260;6.030;2023-06-22T00:36:17;6.1;;;5.5;;
15498;SDS011;7851;52.260;6.030;2023-06-22T00:37:17;7.4;;;5.6;;
15498;SDS011;7851;52.260;6.030;2023-06-22T00:38:17;5.9;;;5.4;;
15498;SDS011;7851;52.260;6.030;2023-06-22T00:39:17;5.8;;;5.3;;
15498;SDS011;7851;52.260;6.030;2023-06-22T00:40:17;6;;;5.5;;
15498;SDS011;7851;52.260;6.030;2023-06-22T00:41:17;5.8;;;5.3;;
15498;SDS011;7851;52.260;6.030;2023-06-22T00:42:17;5.9;;;4.9;;
15498;SDS011;7851;52.260;6.030;2023-06-22T00:43:17;5;;;4.6;;
15498;SDS011;7851;52.260;6.030;2023-06-22T00:44:17;5.1;;;4.7;;
15498;SDS011;7851;52.260;6.030;2023-06-22T00:45:17;5.5;;;5;;
15498;SDS011;7851;52.260;6.030;2023-06-22T00:46:17;6.1;;;5.3;;
15498;SDS011;7851;52.260;6.030;2023-06-22T00:47:17;5.7;;;5.1;;
15498;SDS011;7851;52.260;6.030;2023-06-22T00:48:17;5;;;4.6;;
15498;SDS011;7851;52.260;6.030;2023-06-22T00:49:17;5.3;;;4.9;;
15498;SDS011;7851;52.260;6.030;2023-06-22T00:50:18;5.4;;;4.9;;
15498;SDS011;7851;52.260;6.030;2023-06-22T00:51:17;5.4;;;4.9;;
15498;SDS011;7851;52.260;6.030;2023-06-22T00:52:17;5.2;;;4.8;;
15498;SDS011;7851;52.260;6.030;2023-06-22T00:53:17;5.6;;;5.1;;
15498;SDS011;7851;52.260;6.030;2023-06-22T00:54:17;5.9;;;5.4;;
15498;SDS011;7851;52.260;6.030;2023-06-22T00:55:17;5.9;;;5.4;;
15498;SDS011;7851;52.260;6.030;2023-06-22T00:56:17;4.4;;;4;;
15498;SDS011;7851;52.260;6.030;2023-06-22T00:57:17;4.3;;;4;;
15498;SDS011;7851;52.260;6.030;2023-06-22T00:58:17;4;;;3.7;;
15498;SDS011;7851;52.260;6.030;2023-06-22T00:59:17;4.4;;;4;;
15498;SDS011;7851;52.260;6.030;2023-06-22T01:00:17;5.6;;;4.9;;
15498;SDS011;7851;52.260;6.030;2023-06-22T01:01:17;5.3;;;4.5;;
15498;SDS011;7851;52.260;6.030;2023-06-22T01:02:17;4.5;;;4.2;;
15498;SDS011;7851;52.260;6.030;2023-06-22T01:03:17;4.8;;;4.3;;
15498;SDS011;7851;52.260;6.030;2023-06-22T01:04:17;5.5;;;4.8;;
15498;SDS011;7851;52.260;6.030;2023-06-22T01:05:18;5.7;;;5.3;;
15498;SDS011;7851;52.260;6.030;2023-06-22T01:06:19;5.6;;;4.9;;
15498;SDS011;7851;52.260;6.030;2023-06-22T01:07:19;5.4;;;5;;
15498;SDS011;7851;52.260;6.030;2023-06-22T01:08:21;5.6;;;5.1;;
15498;SDS011;7851;52.260;6.030;2023-06-22T01:09:18;5.5;;;5;;
15498;SDS011;7851;52.260;6.030;2023-06-22T01:10:20;5.1;;;4.7;;
15498;SDS011;7851;52.260;6.030;2023-06-22T01:11:18;5.9;;;4.6;;
15498;SDS011;7851;52.260;6.030;2023-06-22T01:12:17;5.1;;;4.7;;
15498;SDS011;7851;52.260;6.030;2023-06-22T01:13:29;5.2;;;4.8;;
15498;SDS011;7851;52.260;6.030;2023-06-22T01:14:18;6;;;5.2;;
15498;SDS011;7851;52.260;6.030;2023-06-22T01:15:18;4.8;;;4.4;;
15498;SDS011;7851;52.260;6.030;2023-06-22T01:16:17;5.3;;;4.9;;
15498;SDS011;7851;52.260;6.030;2023-06-22T01:17:17;5.8;;;4.7;;
15498;SDS011;7851;52.260;6.030;2023-06-22T01:18:17;6.4;;;4.7;;
15498;SDS011;7851;52.260;6.030;2023-06-22T01:19:21;4.8;;;4.4;;
15498;SDS011;7851;52.260;6.030;2023-06-22T01:20:17;4.4;;;4.1;;
15498;SDS011;7851;52.260;6.030;2023-06-22T01:21:18;4.9;;;4.6;;
15498;SDS011;7851;52.260;6.030;2023-06-22T01:22:17;4.6;;;4.2;;
15498;SDS011;7851;52.260;6.030;2023-06-22T01:23:20;5.5;;;5;;
15498;SDS011;7851;52.260;6.030;2023-06-22T01:24:18;4.5;;;4.2;;
15498;SDS011;7851;52.260;6.030;2023-06-22T01:29:17;5.4;;;4.5;;
15498;SDS011;7851;52.260;6.030;2023-06-22T01:30:17;4.4;;;4;;
15498;SDS011;7851;52.260;6.030;2023-06-22T01:31:18;4.4;;;4;;
15498;SDS011;7851;52.260;6.030;2023-06-22T01:32:17;4.3;;;4;;
15498;SDS011;7851;52.260;6.030;2023-06-22T01:33:17;4.9;;;4.5;;
15498;SDS011;7851;52.260;6.030;2023-06-22T01:34:17;4.7;;;4.3;;
15498;SDS011;7851;52.260;6.030;2023-06-22T01:35:17;4.8;;;4.4;;
15498;SDS011;7851;52.260;6.030;2023-06-22T01:36:18;4.7;;;4.3;;
15498;SDS011;7851;52.260;6.030;2023-06-22T01:37:17;4.4;;;4.1;;
15498;SDS011;7851;52.260;6.030;2023-06-22T01:38:17;4.6;;;4.2;;
15498;SDS011;7851;52.260;6.030;2023-06-22T01:39:19;4.4;;;4.1;;
15498;SDS011;7851;52.260;6.030;2023-06-22T01:40:17;4.8;;;4.4;;
15498;SDS011;7851;52.260;6.030;2023-06-22T01:41:17;4.7;;;4.4;;
15498;SDS011;7851;52.260;6.030;2023-06-22T01:42:17;4.9;;;4.5;;
15498;SDS011;7851;52.260;6.030;2023-06-22T01:43:17;4.7;;;4.3;;
15498;SDS011;7851;52.260;6.030;2023-06-22T01:44:17;4.7;;;4;;
15498;SDS011;7851;52.260;6.030;2023-06-22T01:45:17;5;;;4;;
15498;SDS011;7851;52.260;6.030;2023-06-22T01:46:17;4.8;;;4.4;;
15498;SDS011;7851;52.260;6.030;2023-06-22T01:47:17;4.5;;;4.2;;
15498;SDS011;7851;52.260;6.030;2023-06-22T01:48:17;4.5;;;4;;
15498;SDS011;7851;52.260;6.030;2023-06-22T01:49:17;7.5;;;4;;
15498;SDS011;7851;52.260;6.030;2023-06-22T01:50:17;4.2;;;3.9;;
15498;SDS011;7851;52.260;6.030;2023-06-22T01:51:17;4.8;;;4.4;;
15498;SDS011;7851;52.260;6.030;2023-06-22T01:52:17;4.5;;;4.1;;
15498;SDS011;7851;52.260;6.030;2023-06-22T01:53:17;4.7;;;4.3;;
15498;SDS011;7851;52.260;6.030;2023-06-22T01:54:17;7.3;;;4.9;;
15498;SDS011;7851;52.260;6.030;2023-06-22T01:55:17;5.1;;;4.2;;
15498;SDS011;7851;52.260;6.030;2023-06-22T01:56:17;5.4;;;4.9;;
15498;SDS011;7851;52.260;6.030;2023-06-22T01:57:17;5.8;;;4.9;;
15498;SDS011;7851;52.260;6.030;2023-06-22T01:58:17;5.4;;;4.9;;
15498;SDS011;7851;52.260;6.030;2023-06-22T01:59:17;5;;;4.6;;
15498;SDS011;7851;52.260;6.030;2023-06-22T02:00:18;4.3;;;4;;
15498;SDS011;7851;52.260;6.030;2023-06-22T02:01:20;4.3;;;3.9;;
15498;SDS011;7851;52.260;6.030;2023-06-22T02:02:18;4.1;;;3.8;;
15498;SDS011;7851;52.260;6.030;2023-06-22T02:03:19;4.5;;;4.1;;
15498;SDS011;7851;52.260;6.030;2023-06-22T02:04:19;4.2;;;3.9;;
15498;SDS011;7851;52.260;6.030;2023-06-22T02:05:17;4.6;;;4.1;;
15498;SDS011;7851;52.260;6.030;2023-06-22T02:06:21;5.3;;;4.8;;
15498;SDS011;7851;52.260;6.030;2023-06-22T02:07:17;4.8;;;4.4;;
15498;SDS011;7851;52.260;6.030;2023-06-22T02:08:17;4.7;;;4.3;;
15498;SDS011;7851;52.260;6.030;2023-06-22T02:09:17;5.1;;;4.7;;
15498;SDS011;7851;52.260;6.030;2023-06-22T02:10:17;6.9;;;4.4;;
15498;SDS011;7851;52.260;6.030;2023-06-22T02:11:18;5.3;;;4;;
15498;SDS011;7851;52.260;6.030;2023-06-22T02:12:18;4.8;;;4.4;;
15498;SDS011;7851;52.260;6.030;2023-06-22T02:13:17;4.7;;;4.3;;
15498;SDS011;7851;52.260;6.030;2023-06-22T02:14:17;5.2;;;4.7;;
15498;SDS011;7851;52.260;6.030;2023-06-22T02:15:17;4.4;;;4.1;;
15498;SDS011;7851;52.260;6.030;2023-06-22T02:16:17;4.9;;;4.5;;
15498;SDS011;7851;52.260;6.030;2023-06-22T02:17:17;4.9;;;4.5;;
15498;SDS011;7851;52.260;6.030;2023-06-22T02:18:17;5.2;;;4.6;;
15498;SDS011;7851;52.260;6.030;2023-06-22T02:19:17;5.1;;;4.6;;
15498;SDS011;7851;52.260;6.030;2023-06-22T02:20:17;4.9;;;4.5;;
15498;SDS011;7851;52.260;6.030;2023-06-22T02:21:17;4.7;;;4.4;;
15498;SDS011;7851;52.260;6.030;2023-06-22T02:22:17;4.6;;;4.2;;
15498;SDS011;7851;52.260;6.030;2023-06-22T02:23:17;7;;;4.4;;
15498;SDS011;7851;52.260;6.030;2023-06-22T02:24:17;4.1;;;3.8;;
15498;SDS011;7851;52.260;6.030;2023-06-22T02:25:17;4.5;;;4.2;;
15498;SDS011;7851;52.260;6.030;2023-06-22T02:26:17;4.4;;;4.1;;
15498;SDS011;7851;52.260;6.030;2023-06-22T02:27:17;5.7;;;4.5;;
15498;SDS011;7851;52.260;6.030;2023-06-22T02:28:17;4.8;;;4.4;;
15498;SDS011;7851;52.260;6.030;2023-06-22T02:29:17;7.4;;;4.8;;
15498;SDS011;7851;52.260;6.030;2023-06-22T02:30:17;4.8;;;4.4;;
15498;SDS011;7851;52.260;6.030;2023-06-22T02:31:17;4.7;;;4.3;;
15498;SDS011;7851;52.260;6.030;2023-06-22T02:32:17;6.4;;;4.3;;
15498;SDS011;7851;52.260;6.030;2023-06-22T02:33:17;4.8;;;4.4;;
15498;SDS011;7851;52.260;6.030;2023-06-22T02:34:17;4.2;;;3.9;;
15498;SDS011;7851;52.260;6.030;2023-06-22T02:35:17;4.5;;;4.1;;
15498;SDS011;7851;52.260;6.030;2023-06-22T02:36:17;5.5;;;4.9;;
15498;SDS011;7851;52.260;6.030;2023-06-22T02:37:17;5;;;4.6;;
15498;SDS011;7851;52.260;6.030;2023-06-22T02:38:17;4.8;;;4.4;;
15498;SDS011;7851;52.260;6.030;2023-06-22T02:39:18;4.6;;;4.2;;
15498;SDS011;7851;52.260;6.030;2023-06-22T02:40:17;4.5;;;4.1;;
15498;SDS011;7851;52.260;6.030;2023-06-22T02:41:17;4.1;;;3.8;;
15498;SDS011;7851;52.260;6.030;2023-06-22T02:42:17;5.2;;;3.8;;
15498;SDS011;7851;52.260;6.030;2023-06-22T02:43:17;7.9;;;3.6;;
15498;SDS011;7851;52.260;6.030;2023-06-22T02:44:17;5.2;;;4.2;;
15498;SDS011;7851;52.260;6.030;2023-06-22T02:45:17;4.7;;;4.1;;
15498;SDS011;7851;52.260;6.030;2023-06-22T02:46:17;4.9;;;4.4;;
15498;SDS011;7851;52.260;6.030;2023-06-22T02:47:17;5.1;;;4.6;;
15498;SDS011;7851;52.260;6.030;2023-06-22T02:48:17;4.8;;;4.3;;
15498;SDS011;7851;52.260;6.030;2023-06-22T02:49:17;4.4;;;4.1;;
15498;SDS011;7851;52.260;6.030;2023-06-22T02:50:17;4.5;;;4.1;;
15498;SDS011;7851;52.260;6.030;2023-06-22T02:51:17;5.1;;;4.7;;
15498;SDS011;7851;52.260;6.030;2023-06-22T02:52:17;4.9;;;4.5;;
15498;SDS011;7851;52.260;6.030;2023-06-22T02:53:17;5.6;;;5.1;;
15498;SDS011;7851;52.260;6.030;2023-06-22T02:54:17;5.1;;;4.7;;
15498;SDS011;7851;52.260;6.030;2023-06-22T02:55:17;5.7;;;5.1;;
15498;SDS011;7851;52.260;6.030;2023-06-22T02:56:17;5.8;;;4.8;;
15498;SDS011;7851;52.260;6.030;2023-06-22T02:57:17;6.3;;;5.3;;
15498;SDS011;7851;52.260;6.030;2023-06-22T02:58:17;5.3;;;5;;
15498;SDS011;7851;52.260;6.030;2023-06-22T02:59:17;5.2;;;4.8;;
15498;SDS011;7851;52.260;6.030;2023-06-22T03:00:17;5.2;;;4.7;;
15498;SDS011;7851;52.260;6.030;2023-06-22T03:01:17;6.6;;;4.9;;
15498;SDS011;7851;52.260;6.030;2023-06-22T03:02:17;5.7;;;5.2;;
15498;SDS011;7851;52.260;6.030;2023-06-22T03:03:17;5.3;;;4.9;;
15498;SDS011;7851;52.260;6.030;2023-06-22T03:04:17;4.8;;;4.5;;
15498;SDS011;7851;52.260;6.030;2023-06-22T03:05:17;4.6;;;4.2;;
15498;SDS011;7851;52.260;6.030;2023-06-22T03:06:17;5.7;;;4.9;;
15498;SDS011;7851;52.260;6.030;2023-06-22T03:07:17;5.8;;;5.3;;
15498;SDS011;7851;52.260;6.030;2023-06-22T03:08:17;5.6;;;5.1;;
15498;SDS011;7851;52.260;6.030;2023-06-22T03:09:17;5.4;;;5;;
15498;SDS011;7851;52.260;6.030;2023-06-22T03:10:17;6.7;;;5.3;;
15498;SDS011;7851;52.260;6.030;2023-06-22T03:11:17;5.2;;;4.8;;
15498;SDS011;7851;52.260;6.030;2023-06-22T03:12:17;5.1;;;4.7;;
15498;SDS011;7851;52.260;6.030;2023-06-22T03:13:17;5.5;;;5.1;;
15498;SDS011;7851;52.260;6.030;2023-06-22T03:14:17;5.3;;;4.9;;
15498;SDS011;7851;52.260;6.030;2023-06-22T03:15:17;5.2;;;4.8;;
15498;SDS011;7851;52.260;6.030;2023-06-22T03:16:17;5.8;;;5.3;;
15498;SDS011;7851;52.260;6.030;2023-06-22T03:17:17;6.4;;;5.4;;
15498;SDS011;7851;52.260;6.030;2023-06-22T03:18:17;5.6;;;5;;
15498;SDS011;7851;52.260;6.030;2023-06-22T03:19:17;5.4;;;4.9;;
15498;SDS011;7851;52.260;6.030;2023-06-22T03:20:17;5.5;;;5;;
15498;SDS011;7851;52.260;6.030;2023-06-22T03:21:17;5.9;;;5.4;;
15498;SDS011;7851;52.260;6.030;2023-06-22T03:22:17;5.6;;;5.2;;
15498;SDS011;7851;52.260;6.030;2023-06-22T03:23:17;5.7;;;5.2;;
15498;SDS011;7851;52.260;6.030;2023-06-22T03:24:17;6.1;;;5.3;;
15498;SDS011;7851;52.260;6.030;2023-06-22T03:25:17;7.7;;;5.6;;
15498;SDS011;7851;52.260;6.030;2023-06-22T03:26:17;5.5;;;5.1;;
15498;SDS011;7851;52.260;6.030;2023-06-22T03:27:17;5;;;4.6;;
15498;SDS011;7851;52.260;6.030;2023-06-22T03:28:17;5.8;;;5.3;;
15498;SDS011;7851;52.260;6.030;2023-06-22T03:29:17;8.3;;;5.5;;
15498;SDS011;7851;52.260;6.030;2023-06-22T03:30:17;5.9;;;5.3;;
15498;SDS011;7851;52.260;6.030;2023-06-22T03:31:17;6.4;;;5.8;;
15498;SDS011;7851;52.260;6.030;2023-06-22T03:32:17;6.7;;;6;;
15498;SDS011;7851;52.260;6.030;2023-06-22T03:33:17;6.5;;;5.6;;
15498;SDS011;7851;52.260;6.030;2023-06-22T03:34:17;6.5;;;5.8;;
15498;SDS011;7851;52.260;6.030;2023-06-22T03:35:17;5.9;;;5.4;;
15498;SDS011;7851;52.260;6.030;2023-06-22T03:36:17;6.8;;;5;;
15498;SDS011;7851;52.260;6.030;2023-06-22T03:37:17;6;;;5.5;;
15498;SDS011;7851;52.260;6.030;2023-06-22T03:38:17;6.7;;;6;;
15498;SDS011;7851;52.260;6.030;2023-06-22T03:39:17;6.6;;;6;;
15498;SDS011;7851;52.260;6.030;2023-06-22T03:40:17;6.4;;;5.8;;
15498;SDS011;7851;52.260;6.030;2023-06-22T03:41:17;6.9;;;6.2;;
15498;SDS011;7851;52.260;6.030;2023-06-22T03:42:17;7.5;;;6.8;;
15498;SDS011;7851;52.260;6.030;2023-06-22T03:43:17;6.9;;;6.2;;
15498;SDS011;7851;52.260;6.030;2023-06-22T03:44:17;7;;;6.4;;
15498;SDS011;7851;52.260;6.030;2023-06-22T03:45:17;6.8;;;6.2;;
15498;SDS011;7851;52.260;6.030;2023-06-22T03:46:17;6.6;;;6.1;;
15498;SDS011;7851;52.260;6.030;2023-06-22T03:47:17;6.7;;;6.1;;
15498;SDS011;7851;52.260;6.030;2023-06-22T03:48:17;8.9;;;6.5;;
15498;SDS011;7851;52.260;6.030;2023-06-22T03:49:17;7.3;;;6.6;;
15498;SDS011;7851;52.260;6.030;2023-06-22T03:50:17;6.9;;;6.1;;
15498;SDS011;7851;52.260;6.030;2023-06-22T03:51:17;7.2;;;6.5;;
15498;SDS011;7851;52.260;6.030;2023-06-22T03:52:17;6.5;;;6;;
15498;SDS011;7851;52.260;6.030;2023-06-22T03:53:17;8.9;;;6;;
15498;SDS011;7851;52.260;6.030;2023-06-22T03:54:17;6.9;;;6.2;;
15498;SDS011;7851;52.260;6.030;2023-06-22T03:55:17;5.6;;;5.1;;
15498;SDS011;7851;52.260;6.030;2023-06-22T03:56:17;5.8;;;5.3;;
15498;SDS011;7851;52.260;6.030;2023-06-22T03:57:17;6.1;;;4.9;;
15498;SDS011;7851;52.260;6.030;2023-06-22T03:58:17;5.8;;;5.2;;
15498;SDS011;7851;52.260;6.030;2023-06-22T03:59:17;7.1;;;6.4;;
15498;SDS011;7851;52.260;6.030;2023-06-22T04:00:17;6.9;;;6.2;;
15498;SDS011;7851;52.260;6.030;2023-06-22T04:01:17;7.2;;;6.5;;
15498;SDS011;7851;52.260;6.030;2023-06-22T04:02:17;7.2;;;6.6;;
15498;SDS011;7851;52.260;6.030;2023-06-22T04:03:17;7;;;6.1;;
15498;SDS011;7851;52.260;6.030;2023-06-22T04:04:17;7;;;6.3;;
15498;SDS011;7851;52.260;6.030;2023-06-22T04:05:17;6.3;;;5.8;;
15498;SDS011;7851;52.260;6.030;2023-06-22T04:06:17;7.9;;;6.9;;
15498;SDS011;7851;52.260;6.030;2023-06-22T04:07:17;8.8;;;8;;
15498;SDS011;7851;52.260;6.030;2023-06-22T04:08:17;10.8;;;9.7;;
15498;SDS011;7851;52.260;6.030;2023-06-22T04:09:17;11;;;9.6;;
15498;SDS011;7851;52.260;6.030;2023-06-22T04:10:17;10.8;;;9.8;;
15498;SDS011;7851;52.260;6.030;2023-06-22T04:11:17;11.7;;;10.5;;
15498;SDS011;7851;52.260;6.030;2023-06-22T04:12:17;12.7;;;10.4;;
15498;SDS011;7851;52.260;6.030;2023-06-22T04:13:17;10.4;;;9.4;;
15498;SDS011;7851;52.260;6.030;2023-06-22T04:14:17;11.9;;;10.7;;
15498;SDS011;7851;52.260;6.030;2023-06-22T04:15:17;11.5;;;10.4;;
15498;SDS011;7851;52.260;6.030;2023-06-22T04:16:17;14.5;;;12.2;;
15498;SDS011;7851;52.260;6.030;2023-06-22T04:17:17;17.7;;;12.9;;
15498;SDS011;7851;52.260;6.030;2023-06-22T04:18:17;18.8;;;14.8;;
15498;SDS011;7851;52.260;6.030;2023-06-22T04:19:17;19.5;;;16.7;;
15498;SDS011;7851;52.260;6.030;2023-06-22T04:20:17;20.4;;;16.6;;
15498;SDS011;7851;52.260;6.030;2023-06-22T04:21:17;18;;;15.5;;
15498;SDS011;7851;52.260;6.030;2023-06-22T04:22:17;17.7;;;15.8;;
15498;SDS011;7851;52.260;6.030;2023-06-22T04:23:17;17.9;;;16;;
15498;SDS011;7851;52.260;6.030;2023-06-22T04:24:17;17.4;;;15.5;;
15498;SDS011;7851;52.260;6.030;2023-06-22T04:25:17;16.4;;;14.8;;
15498;SDS011;7851;52.260;6.030;2023-06-22T04:26:17;14.5;;;13.1;;
15498;SDS011;7851;52.260;6.030;2023-06-22T04:27:17;15.9;;;14.1;;
15498;SDS011;7851;52.260;6.030;2023-06-22T04:28:17;17;;;15;;
15498;SDS011;7851;52.260;6.030;2023-06-22T04:29:17;16.6;;;14.9;;
15498;SDS011;7851;52.260;6.030;2023-06-22T04:30:17;18.2;;;14.7;;
15498;SDS011;7851;52.260;6.030;2023-06-22T04:31:17;14.1;;;12.3;;
15498;SDS011;7851;52.260;6.030;2023-06-22T04:32:17;13.6;;;12.2;;
15498;SDS011;7851;52.260;6.030;2023-06-22T04:33:17;14.5;;;12.3;;
15498;SDS011;7851;52.260;6.030;2023-06-22T04:34:17;17.1;;;12;;
15498;SDS011;7851;52.260;6.030;2023-06-22T04:35:17;14;;;12.7;;
15498;SDS011;7851;52.260;6.030;2023-06-22T04:36:18;23.5;;;20.6;;
15498;SDS011;7851;52.260;6.030;2023-06-22T04:37:18;22;;;19.7;;
15498;SDS011;7851;52.260;6.030;2023-06-22T04:38:17;23.1;;;20.6;;
15498;SDS011;7851;52.260;6.030;2023-06-22T04:39:17;25.6;;;21.2;;
15498;SDS011;7851;52.260;6.030;2023-06-22T04:40:17;24.5;;;21.6;;
15498;SDS011;7851;52.260;6.030;2023-06-22T04:41:17;23.5;;;21;;
15498;SDS011;7851;52.260;6.030;2023-06-22T04:42:17;25.3;;;21.1;;
15498;SDS011;7851;52.260;6.030;2023-06-22T04:43:17;25.7;;;22.6;;
15498;SDS011;7851;52.260;6.030;2023-06-22T04:44:17;25.6;;;21.4;;
15498;SDS011;7851;52.260;6.030;2023-06-22T04:45:17;23.3;;;20.8;;
15498;SDS011;7851;52.260;6.030;2023-06-22T04:46:17;24;;;21.5;;
15498;SDS011;7851;52.260;6.030;2023-06-22T04:47:17;34.1;;;30.8;;
15498;SDS011;7851;52.260;6.030;2023-06-22T04:48:17;35.1;;;31.4;;
15498;SDS011;7851;52.260;6.030;2023-06-22T04:49:17;38.8;;;34.7;;
15498;SDS011;7851;52.260;6.030;2023-06-22T04:50:17;37.3;;;33.4;;
15498;SDS011;7851;52.260;6.030;2023-06-22T04:51:17;36.3;;;33;;
15498;SDS011;7851;52.260;6.030;2023-06-22T04:52:17;37.5;;;33.5;;
15498;SDS011;7851;52.260;6.030;2023-06-22T04:53:17;38.4;;;35;;
15498;SDS011;7851;52.260;6.030;2023-06-22T04:54:17;38.5;;;34.8;;
15498;SDS011;7851;52.260;6.030;2023-06-22T04:55:17;42;;;38.3;;
15498;SDS011;7851;52.260;6.030;2023-06-22T04:56:17;43.7;;;39.1;;
15498;SDS011;7851;52.260;6.030;2023-06-22T04:57:17;42.7;;;38.7;;
15498;SDS011;7851;52.260;6.030;2023-06-22T04:58:17;44.7;;;40.2;;
15498;SDS011;7851;52.260;6.030;2023-06-22T04:59:17;43.6;;;39.6;;
15498;SDS011;7851;52.260;6.030;2023-06-22T05:00:18;45;;;41.1;;
15498;SDS011;7851;52.260;6.030;2023-06-22T05:01:17;44.7;;;40.5;;
15498;SDS011;7851;52.260;6.030;2023-06-22T05:02:18;48.5;;;43.8;;
15498;SDS011;7851;52.260;6.030;2023-06-22T05:03:17;47.5;;;42.7;;
15498;SDS011;7851;52.260;6.030;2023-06-22T05:04:17;49.1;;;44.4;;
15498;SDS011;7851;52.260;6.030;2023-06-22T05:05:17;45.8;;;41.6;;
15498;SDS011;7851;52.260;6.030;2023-06-22T05:06:17;50.3;;;45.2;;
15498;SDS011;7851;52.260;6.030;2023-06-22T05:07:17;51.5;;;46.6;;
15498;SDS011;7851;52.260;6.030;2023-06-22T05:08:17;52.9;;;47.8;;
15498;SDS011;7851;52.260;6.030;2023-06-22T05:09:17;58.9;;;53.1;;
15498;SDS011;7851;52.260;6.030;2023-06-22T05:10:17;53.1;;;48.1;;
15498;SDS011;7851;52.260;6.030;2023-06-22T05:11:17;57.5;;;52.1;;
15498;SDS011;7851;52.260;6.030;2023-06-22T05:12:17;53.6;;;48.4;;
15498;SDS011;7851;52.260;6.030;2023-06-22T05:13:17;52.4;;;47.1;;
15498;SDS011;7851;52.260;6.030;2023-06-22T05:14:17;54.3;;;49.2;;
15498;SDS011;7851;52.260;6.030;2023-06-22T05:15:17;52.1;;;47.3;;
15498;SDS011;7851;52.260;6.030;2023-06-22T05:16:17;54.6;;;49.4;;
15498;SDS011;7851;52.260;6.030;2023-06-22T05:17:17;53.7;;;48.3;;
15498;SDS011;7851;52.260;6.030;2023-06-22T05:18:17;53.4;;;48.3;;
15498;SDS011;7851;52.260;6.030;2023-06-22T05:19:17;52.9;;;48.2;;
15498;SDS011;7851;52.260;6.030;2023-06-22T05:20:17;52.1;;;47;;
15498;SDS011;7851;52.260;6.030;2023-06-22T05:21:17;54.9;;;49.7;;
15498;SDS011;7851;52.260;6.030;2023-06-22T05:22:17;53.8;;;48.5;;
15498;SDS011;7851;52.260;6.030;2023-06-22T05:23:17;54.9;;;49.5;;
15498;SDS011;7851;52.260;6.030;2023-06-22T05:24:17;59.1;;;52.9;;
15498;SDS011;7851;52.260;6.030;2023-06-22T05:25:17;58.3;;;52.8;;
15498;SDS011;7851;52.260;6.030;2023-06-22T05:26:17;58.4;;;53;;
15498;SDS011;7851;52.260;6.030;2023-06-22T05:27:17;58.9;;;53.2;;
15498;SDS011;7851;52.260;6.030;2023-06-22T05:28:17;56;;;50.7;;
15498;SDS011;7851;52.260;6.030;2023-06-22T05:29:17;55.2;;;49.9;;
15498;SDS011;7851;52.260;6.030;2023-06-22T05:30:17;55.7;;;50;;
15498;SDS011;7851;52.260;6.030;2023-06-22T05:31:17;53.8;;;48.7;;
15498;SDS011;7851;52.260;6.030;2023-06-22T05:32:17;55.5;;;50.2;;
15498;SDS011;7851;52.260;6.030;2023-06-22T05:33:17;53.8;;;48.2;;
15498;SDS011;7851;52.260;6.030;2023-06-22T05:34:17;53.4;;;47.8;;
15498;SDS011;7851;52.260;6.030;2023-06-22T05:35:17;54.4;;;49.1;;
15498;SDS011;7851;52.260;6.030;2023-06-22T05:36:17;56.2;;;50.2;;
15498;SDS011;7851;52.260;6.030;2023-06-22T05:37:17;55.4;;;50.3;;
15498;SDS011;7851;52.260;6.030;2023-06-22T05:38:17;55.9;;;50.8;;
15498;SDS011;7851;52.260;6.030;2023-06-22T05:39:17;52.7;;;47.8;;
15498;SDS011;7851;52.260;6.030;2023-06-22T05:40:17;52.9;;;47.7;;
15498;SDS011;7851;52.260;6.030;2023-06-22T05:41:17;54.5;;;49.3;;
15498;SDS011;7851;52.260;6.030;2023-06-22T05:42:17;55.4;;;50.2;;
15498;SDS011;7851;52.260;6.030;2023-06-22T05:43:17;52.2;;;47.4;;
15498;SDS011;7851;52.260;6.030;2023-06-22T05:44:17;55.7;;;50.3;;
15498;SDS011;7851;52.260;6.030;2023-06-22T05:45:17;56.3;;;50.8;;
15498;SDS011;7851;52.260;6.030;2023-06-22T05:46:17;55.6;;;50.5;;
15498;SDS011;7851;52.260;6.030;2023-06-22T05:47:17;55.7;;;50.7;;
15498;SDS011;7851;52.260;6.030;2023-06-22T05:48:17;55.9;;;50.3;;
15498;SDS011;7851;52.260;6.030;2023-06-22T05:49:17;53.2;;;48.2;;
15498;SDS011;7851;52.260;6.030;2023-06-22T05:50:17;51.7;;;47.1;;
15498;SDS011;7851;52.260;6.030;2023-06-22T05:51:17;52.3;;;47.6;;
15498;SDS011;7851;52.260;6.030;2023-06-22T05:52:17;50.2;;;45.9;;
15498;SDS011;7851;52.260;6.030;2023-06-22T05:53:17;49.6;;;45.2;;
15498;SDS011;7851;52.260;6.030;2023-06-22T05:54:17;50.1;;;45.7;;
15498;SDS011;7851;52.260;6.030;2023-06-22T05:55:17;54.2;;;49.3;;
15498;SDS011;7851;52.260;6.030;2023-06-22T05:56:17;55.4;;;49.9;;
15498;SDS011;7851;52.260;6.030;2023-06-22T05:57:17;50.2;;;45.6;;
15498;SDS011;7851;52.260;6.030;2023-06-22T05:58:17;53.1;;;47.9;;
15498;SDS011;7851;52.260;6.030;2023-06-22T05:59:17;50.4;;;45.7;;
15498;SDS011;7851;52.260;6.030;2023-06-22T06:00:17;51.1;;;46.4;;
15498;SDS011;7851;52.260;6.030;2023-06-22T06:01:17;49.4;;;45.1;;
15498;SDS011;7851;52.260;6.030;2023-06-22T06:02:17;46.7;;;42.5;;
15498;SDS011;7851;52.260;6.030;2023-06-22T06:03:17;47.5;;;42.9;;
15498;SDS011;7851;52.260;6.030;2023-06-22T06:04:17;46.8;;;42.6;;
15498;SDS011;7851;52.260;6.030;2023-06-22T06:05:17;47.2;;;43.1;;
15498;SDS011;7851;52.260;6.030;2023-06-22T06:06:17;48.5;;;43.7;;
15498;SDS011;7851;52.260;6.030;2023-06-22T06:07:17;47.1;;;43;;
15498;SDS011;7851;52.260;6.030;2023-06-22T06:08:17;45.8;;;41.7;;
15498;SDS011;7851;52.260;6.030;2023-06-22T06:09:17;45.3;;;41;;
15498;SDS011;7851;52.260;6.030;2023-06-22T06:10:17;46.1;;;41.9;;
15498;SDS011;7851;52.260;6.030;2023-06-22T06:11:17;45.3;;;40.9;;
15498;SDS011;7851;52.260;6.030;2023-06-22T06:12:17;46.8;;;42.2;;
15498;SDS011;7851;52.260;6.030;2023-06-22T06:13:17;46.4;;;42.2;;
15498;SDS011;7851;52.260;6.030;2023-06-22T06:14:17;48;;;43.6;;
15498;SDS011;7851;52.260;6.030;2023-06-22T06:15:17;47.9;;;43.2;;
15498;SDS011;7851;52.260;6.030;2023-06-22T06:16:17;45.3;;;41.1;;
15498;SDS011;7851;52.260;6.030;2023-06-22T06:17:17;46.9;;;42.6;;
15498;SDS011;7851;52.260;6.030;2023-06-22T06:18:17;45.3;;;41.3;;
15498;SDS011;7851;52.260;6.030;2023-06-22T06:19:17;44;;;40;;
15498;SDS011;7851;52.260;6.030;2023-06-22T06:20:18;42.6;;;39;;